sensor_id;sensor_type;location;lat;lon;timestamp;P1;durP1;ratioP1;P2;durP2;ratioP2
23608;SDS011;11982;50.810;4.442;2022-08-27T00:01:27;9.32;;;3.30;;
23608;SDS011;11982;50.810;4.442;2022-08-27T00:03:52;8.15;;;3.28;;
23608;SDS011;11982;50.810;4.442;2022-08-27T00:06:19;9.20;;;3.35;;
23608;SDS011;11982;50.810;4.442;2022-08-27T00:08:47;9.25;;;3.28;;
23608;SDS011;11982;50.810;4.442;2022-08-27T00:11:13;5.45;;;3.20;;
23608;SDS011;11982;50.810;4.442;2022-08-27T00:13:39;10.02;;;3.30;;
23608;SDS011;11982;50.810;4.442;2022-08-27T00:16:06;8.50;;;3.45;;
23608;SDS011;11982;50.810;4.442;2022-08-27T00:18:34;11.40;;;3.55;;
23608;SDS011;11982;50.810;4.442;2022-08-27T00:21:00;12.10;;;3.72;;
23608;SDS011;11982;50.810;4.442;2022-08-27T00:23:27;7.75;;;3.58;;
23608;SDS011;11982;50.810;4.442;2022-08-27T00:25:53;9.23;;;3.35;;
23608;SDS011;11982;50.810;4.442;2022-08-27T00:28:19;9.02;;;3.08;;
23608;SDS011;11982;50.810;4.442;2022-08-27T00:30:45;13.90;;;3.42;;
23608;SDS011;11982;50.810;4.442;2022-08-27T00:33:11;8.52;;;3.70;;
23608;SDS011;11982;50.810;4.442;2022-08-27T00:35:37;9.50;;;3.28;;
23608;SDS011;11982;50.810;4.442;2022-08-27T00:38:03;9.63;;;3.33;;
23608;SDS011;11982;50.810;4.442;2022-08-27T00:40:30;12.68;;;3.25;;
23608;SDS011;11982;50.810;4.442;2022-08-27T00:42:57;12.88;;;3.63;;
23608;SDS011;11982;50.810;4.442;2022-08-27T00:45:26;11.80;;;3.30;;
23608;SDS011;11982;50.810;4.442;2022-08-27T00:47:53;11.30;;;3.75;;
23608;SDS011;11982;50.810;4.442;2022-08-27T00:50:37;9.98;;;3.65;;
23608;SDS011;11982;50.810;4.442;2022-08-27T00:53:12;8.80;;;3.33;;
23608;SDS011;11982;50.810;4.442;2022-08-27T00:55:42;9.95;;;3.78;;
23608;SDS011;11982;50.810;4.442;2022-08-27T00:58:19;6.95;;;3.08;;
23608;SDS011;11982;50.810;4.442;2022-08-27T01:00:50;14.48;;;3.58;;
23608;SDS011;11982;50.810;4.442;2022-08-27T01:03:16;18.67;;;3.30;;
23608;SDS011;11982;50.810;4.442;2022-08-27T01:05:42;11.30;;;3.70;;
23608;SDS011;11982;50.810;4.442;2022-08-27T01:08:17;11.65;;;4.05;;
23608;SDS011;11982;50.810;4.442;2022-08-27T01:10:45;9.90;;;3.30;;
23608;SDS011;11982;50.810;4.442;2022-08-27T01:13:14;7.10;;;3.22;;
23608;SDS011;11982;50.810;4.442;2022-08-27T01:15:44;10.10;;;3.60;;
23608;SDS011;11982;50.810;4.442;2022-08-27T01:18:10;13.63;;;3.95;;
23608;SDS011;11982;50.810;4.442;2022-08-27T01:23:37;7.85;;;3.10;;
23608;SDS011;11982;50.810;4.442;2022-08-27T01:26:08;6.63;;;3.20;;
23608;SDS011;11982;50.810;4.442;2022-08-27T01:28:38;8.00;;;3.42;;
23608;SDS011;11982;50.810;4.442;2022-08-27T01:31:05;8.77;;;3.45;;
23608;SDS011;11982;50.810;4.442;2022-08-27T01:33:33;7.20;;;3.50;;
23608;SDS011;11982;50.810;4.442;2022-08-27T01:35:58;10.98;;;3.70;;
23608;SDS011;11982;50.810;4.442;2022-08-27T01:38:24;11.88;;;3.05;;
23608;SDS011;11982;50.810;4.442;2022-08-27T01:40:51;9.45;;;3.63;;
23608;SDS011;11982;50.810;4.442;2022-08-27T01:43:18;8.70;;;3.70;;
23608;SDS011;11982;50.810;4.442;2022-08-27T01:45:45;10.93;;;3.13;;
23608;SDS011;11982;50.810;4.442;2022-08-27T01:48:15;12.02;;;3.75;;
23608;SDS011;11982;50.810;4.442;2022-08-27T01:50:43;10.52;;;3.72;;
23608;SDS011;11982;50.810;4.442;2022-08-27T01:53:11;8.75;;;3.60;;
23608;SDS011;11982;50.810;4.442;2022-08-27T01:55:40;10.30;;;4.13;;
23608;SDS011;11982;50.810;4.442;2022-08-27T01:58:07;13.15;;;3.92;;
23608;SDS011;11982;50.810;4.442;2022-08-27T02:00:35;15.73;;;3.63;;
23608;SDS011;11982;50.810;4.442;2022-08-27T02:03:06;10.27;;;3.50;;
23608;SDS011;11982;50.810;4.442;2022-08-27T02:05:34;13.50;;;3.53;;
23608;SDS011;11982;50.810;4.442;2022-08-27T02:07:59;5.90;;;3.40;;
23608;SDS011;11982;50.810;4.442;2022-08-27T02:10:30;12.30;;;3.65;;
23608;SDS011;11982;50.810;4.442;2022-08-27T02:12:57;9.65;;;3.83;;
23608;SDS011;11982;50.810;4.442;2022-08-27T02:15:23;13.85;;;3.45;;
23608;SDS011;11982;50.810;4.442;2022-08-27T02:17:51;10.77;;;3.38;;
23608;SDS011;11982;50.810;4.442;2022-08-27T02:20:17;6.60;;;3.50;;
23608;SDS011;11982;50.810;4.442;2022-08-27T02:22:43;10.43;;;3.67;;
23608;SDS011;11982;50.810;4.442;2022-08-27T02:25:10;8.27;;;3.50;;
23608;SDS011;11982;50.810;4.442;2022-08-27T02:27:38;6.57;;;3.65;;
23608;SDS011;11982;50.810;4.442;2022-08-27T02:30:05;11.77;;;3.80;;
23608;SDS011;11982;50.810;4.442;2022-08-27T02:32:32;9.27;;;3.47;;
23608;SDS011;11982;50.810;4.442;2022-08-27T02:34:58;7.90;;;3.70;;
23608;SDS011;11982;50.810;4.442;2022-08-27T02:37:25;8.10;;;3.40;;
23608;SDS011;11982;50.810;4.442;2022-08-27T02:39:50;6.57;;;3.30;;
23608;SDS011;11982;50.810;4.442;2022-08-27T02:42:17;8.70;;;3.97;;
23608;SDS011;11982;50.810;4.442;2022-08-27T02:44:42;12.10;;;3.65;;
23608;SDS011;11982;50.810;4.442;2022-08-27T02:47:08;12.85;;;3.95;;
23608;SDS011;11982;50.810;4.442;2022-08-27T02:49:34;13.70;;;3.95;;
23608;SDS011;11982;50.810;4.442;2022-08-27T02:52:00;15.02;;;3.92;;
23608;SDS011;11982;50.810;4.442;2022-08-27T02:54:27;8.82;;;3.70;;
23608;SDS011;11982;50.810;4.442;2022-08-27T02:56:54;11.05;;;4.28;;
23608;SDS011;11982;50.810;4.442;2022-08-27T02:59:20;10.85;;;4.50;;
23608;SDS011;11982;50.810;4.442;2022-08-27T03:01:46;10.98;;;4.35;;
23608;SDS011;11982;50.810;4.442;2022-08-27T03:04:12;11.40;;;3.92;;
23608;SDS011;11982;50.810;4.442;2022-08-27T03:06:38;11.80;;;4.03;;
23608;SDS011;11982;50.810;4.442;2022-08-27T03:09:04;7.55;;;3.85;;
23608;SDS011;11982;50.810;4.442;2022-08-27T03:11:30;10.48;;;4.40;;
23608;SDS011;11982;50.810;4.442;2022-08-27T03:13:56;13.15;;;4.35;;
23608;SDS011;11982;50.810;4.442;2022-08-27T03:16:23;14.02;;;4.53;;
23608;SDS011;11982;50.810;4.442;2022-08-27T03:18:49;10.80;;;4.35;;
23608;SDS011;11982;50.810;4.442;2022-08-27T03:21:20;12.65;;;5.22;;
23608;SDS011;11982;50.810;4.442;2022-08-27T03:23:48;5.93;;;4.13;;
23608;SDS011;11982;50.810;4.442;2022-08-27T03:26:16;7.45;;;4.30;;
23608;SDS011;11982;50.810;4.442;2022-08-27T03:28:42;10.93;;;4.35;;
23608;SDS011;11982;50.810;4.442;2022-08-27T03:31:13;9.93;;;4.32;;
23608;SDS011;11982;50.810;4.442;2022-08-27T03:33:46;9.20;;;4.10;;
23608;SDS011;11982;50.810;4.442;2022-08-27T03:36:12;10.90;;;4.63;;
23608;SDS011;11982;50.810;4.442;2022-08-27T03:38:37;10.43;;;4.75;;
23608;SDS011;11982;50.810;4.442;2022-08-27T03:41:04;9.43;;;4.38;;
23608;SDS011;11982;50.810;4.442;2022-08-27T03:43:30;12.40;;;4.80;;
23608;SDS011;11982;50.810;4.442;2022-08-27T03:45:56;8.48;;;3.90;;
23608;SDS011;11982;50.810;4.442;2022-08-27T03:48:21;9.23;;;4.88;;
23608;SDS011;11982;50.810;4.442;2022-08-27T03:50:48;11.27;;;4.00;;
23608;SDS011;11982;50.810;4.442;2022-08-27T03:53:15;8.88;;;3.85;;
23608;SDS011;11982;50.810;4.442;2022-08-27T03:55:42;10.27;;;4.45;;
23608;SDS011;11982;50.810;4.442;2022-08-27T03:58:08;9.65;;;4.13;;
23608;SDS011;11982;50.810;4.442;2022-08-27T04:00:35;8.80;;;4.75;;
23608;SDS011;11982;50.810;4.442;2022-08-27T04:03:01;10.63;;;4.15;;
23608;SDS011;11982;50.810;4.442;2022-08-27T04:05:29;10.93;;;4.10;;
23608;SDS011;11982;50.810;4.442;2022-08-27T04:07:54;8.00;;;4.50;;
23608;SDS011;11982;50.810;4.442;2022-08-27T04:10:20;8.63;;;4.53;;
23608;SDS011;11982;50.810;4.442;2022-08-27T04:12:46;15.20;;;4.00;;
23608;SDS011;11982;50.810;4.442;2022-08-27T04:15:11;7.32;;;4.35;;
23608;SDS011;11982;50.810;4.442;2022-08-27T04:17:37;8.93;;;4.35;;
23608;SDS011;11982;50.810;4.442;2022-08-27T04:20:04;12.63;;;4.00;;
23608;SDS011;11982;50.810;4.442;2022-08-27T04:22:31;7.53;;;4.18;;
23608;SDS011;11982;50.810;4.442;2022-08-27T04:24:57;7.45;;;4.00;;
23608;SDS011;11982;50.810;4.442;2022-08-27T04:27:23;10.63;;;4.22;;
23608;SDS011;11982;50.810;4.442;2022-08-27T04:29:53;8.63;;;4.40;;
23608;SDS011;11982;50.810;4.442;2022-08-27T04:32:23;8.32;;;4.55;;
23608;SDS011;11982;50.810;4.442;2022-08-27T04:34:56;15.98;;;4.70;;
23608;SDS011;11982;50.810;4.442;2022-08-27T04:37:23;9.40;;;4.45;;
23608;SDS011;11982;50.810;4.442;2022-08-27T04:39:49;8.75;;;4.13;;
23608;SDS011;11982;50.810;4.442;2022-08-27T04:42:16;11.00;;;4.47;;
23608;SDS011;11982;50.810;4.442;2022-08-27T04:44:43;10.95;;;4.50;;
23608;SDS011;11982;50.810;4.442;2022-08-27T04:47:09;10.80;;;5.05;;
23608;SDS011;11982;50.810;4.442;2022-08-27T04:49:35;8.85;;;5.03;;
23608;SDS011;11982;50.810;4.442;2022-08-27T04:52:01;10.88;;;4.30;;
23608;SDS011;11982;50.810;4.442;2022-08-27T04:54:28;10.52;;;4.82;;
23608;SDS011;11982;50.810;4.442;2022-08-27T04:56:54;11.77;;;4.60;;
23608;SDS011;11982;50.810;4.442;2022-08-27T04:59:19;10.30;;;4.13;;
23608;SDS011;11982;50.810;4.442;2022-08-27T05:01:45;8.27;;;4.30;;
23608;SDS011;11982;50.810;4.442;2022-08-27T05:04:12;10.95;;;4.50;;
23608;SDS011;11982;50.810;4.442;2022-08-27T05:06:39;12.77;;;4.28;;
23608;SDS011;11982;50.810;4.442;2022-08-27T05:09:05;10.05;;;4.10;;
23608;SDS011;11982;50.810;4.442;2022-08-27T05:11:31;9.07;;;4.28;;
23608;SDS011;11982;50.810;4.442;2022-08-27T05:14:05;10.18;;;4.00;;
23608;SDS011;11982;50.810;4.442;2022-08-27T05:16:32;8.25;;;4.25;;
23608;SDS011;11982;50.810;4.442;2022-08-27T05:19:00;8.68;;;4.00;;
23608;SDS011;11982;50.810;4.442;2022-08-27T05:21:28;10.70;;;4.15;;
23608;SDS011;11982;50.810;4.442;2022-08-27T05:23:56;8.20;;;3.92;;
23608;SDS011;11982;50.810;4.442;2022-08-27T05:26:23;8.13;;;4.03;;
23608;SDS011;11982;50.810;4.442;2022-08-27T05:28:50;8.52;;;3.90;;
23608;SDS011;11982;50.810;4.442;2022-08-27T05:31:16;5.50;;;3.60;;
23608;SDS011;11982;50.810;4.442;2022-08-27T05:33:43;10.90;;;4.00;;
23608;SDS011;11982;50.810;4.442;2022-08-27T05:36:17;9.90;;;3.70;;
23608;SDS011;11982;50.810;4.442;2022-08-27T05:38:46;8.05;;;3.55;;
23608;SDS011;11982;50.810;4.442;2022-08-27T05:41:16;8.25;;;3.70;;
23608;SDS011;11982;50.810;4.442;2022-08-27T05:43:44;6.03;;;3.80;;
23608;SDS011;11982;50.810;4.442;2022-08-27T05:46:12;9.05;;;3.85;;
23608;SDS011;11982;50.810;4.442;2022-08-27T05:48:39;9.85;;;3.20;;
23608;SDS011;11982;50.810;4.442;2022-08-27T05:51:16;6.30;;;3.45;;
23608;SDS011;11982;50.810;4.442;2022-08-27T05:53:57;8.73;;;3.50;;
23608;SDS011;11982;50.810;4.442;2022-08-27T05:56:27;5.78;;;2.90;;
23608;SDS011;11982;50.810;4.442;2022-08-27T05:58:55;5.90;;;2.92;;
23608;SDS011;11982;50.810;4.442;2022-08-27T06:01:41;6.93;;;2.97;;
23608;SDS011;11982;50.810;4.442;2022-08-27T06:04:09;6.60;;;3.35;;
23608;SDS011;11982;50.810;4.442;2022-08-27T06:06:37;9.57;;;3.40;;
23608;SDS011;11982;50.810;4.442;2022-08-27T06:09:05;6.95;;;3.58;;
23608;SDS011;11982;50.810;4.442;2022-08-27T06:11:31;8.90;;;3.80;;
23608;SDS011;11982;50.810;4.442;2022-08-27T06:13:57;7.05;;;3.45;;
23608;SDS011;11982;50.810;4.442;2022-08-27T06:16:23;6.65;;;3.38;;
23608;SDS011;11982;50.810;4.442;2022-08-27T06:18:49;8.45;;;3.78;;
23608;SDS011;11982;50.810;4.442;2022-08-27T06:21:16;7.78;;;3.50;;
23608;SDS011;11982;50.810;4.442;2022-08-27T06:23:43;7.53;;;3.70;;
23608;SDS011;11982;50.810;4.442;2022-08-27T06:26:10;7.78;;;4.05;;
23608;SDS011;11982;50.810;4.442;2022-08-27T06:28:37;11.35;;;4.28;;
23608;SDS011;11982;50.810;4.442;2022-08-27T06:33:33;13.10;;;3.88;;
23608;SDS011;11982;50.810;4.442;2022-08-27T06:36:00;12.57;;;4.13;;
23608;SDS011;11982;50.810;4.442;2022-08-27T06:38:27;11.65;;;3.75;;
23608;SDS011;11982;50.810;4.442;2022-08-27T06:40:53;13.63;;;3.70;;
23608;SDS011;11982;50.810;4.442;2022-08-27T06:43:20;10.32;;;4.25;;
23608;SDS011;11982;50.810;4.442;2022-08-27T06:45:47;12.00;;;3.42;;
23608;SDS011;11982;50.810;4.442;2022-08-27T06:48:13;10.50;;;3.35;;
23608;SDS011;11982;50.810;4.442;2022-08-27T06:50:39;11.05;;;4.05;;
23608;SDS011;11982;50.810;4.442;2022-08-27T06:53:06;7.40;;;2.97;;
23608;SDS011;11982;50.810;4.442;2022-08-27T06:55:32;7.80;;;3.83;;
23608;SDS011;11982;50.810;4.442;2022-08-27T06:58:08;11.07;;;4.03;;
23608;SDS011;11982;50.810;4.442;2022-08-27T07:00:34;10.40;;;3.70;;
23608;SDS011;11982;50.810;4.442;2022-08-27T07:03:00;9.95;;;3.20;;
23608;SDS011;11982;50.810;4.442;2022-08-27T07:05:27;17.40;;;3.83;;
23608;SDS011;11982;50.810;4.442;2022-08-27T07:07:53;8.80;;;3.70;;
23608;SDS011;11982;50.810;4.442;2022-08-27T07:10:19;7.88;;;3.38;;
23608;SDS011;11982;50.810;4.442;2022-08-27T07:12:44;10.40;;;3.55;;
23608;SDS011;11982;50.810;4.442;2022-08-27T07:15:10;14.63;;;3.95;;
23608;SDS011;11982;50.810;4.442;2022-08-27T07:17:36;14.25;;;3.53;;
23608;SDS011;11982;50.810;4.442;2022-08-27T07:20:02;13.05;;;3.45;;
23608;SDS011;11982;50.810;4.442;2022-08-27T07:22:29;11.77;;;3.20;;
23608;SDS011;11982;50.810;4.442;2022-08-27T07:24:54;14.68;;;3.72;;
23608;SDS011;11982;50.810;4.442;2022-08-27T07:27:20;10.00;;;3.50;;
23608;SDS011;11982;50.810;4.442;2022-08-27T07:29:46;9.20;;;2.90;;
23608;SDS011;11982;50.810;4.442;2022-08-27T07:32:12;10.18;;;3.05;;
23608;SDS011;11982;50.810;4.442;2022-08-27T07:34:37;9.18;;;2.85;;
23608;SDS011;11982;50.810;4.442;2022-08-27T07:37:03;7.50;;;2.53;;
23608;SDS011;11982;50.810;4.442;2022-08-27T07:39:28;9.45;;;2.80;;
23608;SDS011;11982;50.810;4.442;2022-08-27T07:41:55;9.52;;;2.58;;
23608;SDS011;11982;50.810;4.442;2022-08-27T07:44:40;11.07;;;2.65;;
23608;SDS011;11982;50.810;4.442;2022-08-27T07:47:06;8.15;;;2.53;;
23608;SDS011;11982;50.810;4.442;2022-08-27T07:49:32;9.93;;;2.70;;
23608;SDS011;11982;50.810;4.442;2022-08-27T07:51:59;8.25;;;2.50;;
23608;SDS011;11982;50.810;4.442;2022-08-27T07:54:25;10.35;;;2.67;;
23608;SDS011;11982;50.810;4.442;2022-08-27T07:56:51;8.98;;;2.60;;
23608;SDS011;11982;50.810;4.442;2022-08-27T07:59:17;8.60;;;2.70;;
23608;SDS011;11982;50.810;4.442;2022-08-27T08:01:43;10.43;;;2.70;;
23608;SDS011;11982;50.810;4.442;2022-08-27T08:04:09;10.82;;;2.50;;
23608;SDS011;11982;50.810;4.442;2022-08-27T08:06:36;5.70;;;2.20;;
23608;SDS011;11982;50.810;4.442;2022-08-27T08:09:03;11.30;;;2.80;;
23608;SDS011;11982;50.810;4.442;2022-08-27T08:11:29;8.88;;;2.97;;
23608;SDS011;11982;50.810;4.442;2022-08-27T08:13:55;12.38;;;2.75;;
23608;SDS011;11982;50.810;4.442;2022-08-27T08:16:24;8.07;;;2.58;;
23608;SDS011;11982;50.810;4.442;2022-08-27T08:18:50;5.43;;;2.45;;
23608;SDS011;11982;50.810;4.442;2022-08-27T08:21:15;7.65;;;2.50;;
23608;SDS011;11982;50.810;4.442;2022-08-27T08:23:41;8.15;;;2.22;;
23608;SDS011;11982;50.810;4.442;2022-08-27T08:26:08;9.98;;;2.00;;
23608;SDS011;11982;50.810;4.442;2022-08-27T08:28:36;13.93;;;2.50;;
23608;SDS011;11982;50.810;4.442;2022-08-27T08:31:03;7.03;;;2.00;;
23608;SDS011;11982;50.810;4.442;2022-08-27T08:33:29;7.88;;;2.35;;
23608;SDS011;11982;50.810;4.442;2022-08-27T08:36:06;5.93;;;1.58;;
23608;SDS011;11982;50.810;4.442;2022-08-27T08:38:37;3.65;;;1.50;;
23608;SDS011;11982;50.810;4.442;2022-08-27T08:41:05;7.20;;;1.80;;
23608;SDS011;11982;50.810;4.442;2022-08-27T08:46:11;5.70;;;1.77;;
23608;SDS011;11982;50.810;4.442;2022-08-27T08:49:02;6.93;;;1.88;;
23608;SDS011;11982;50.810;4.442;2022-08-27T08:51:41;7.47;;;1.88;;
23608;SDS011;11982;50.810;4.442;2022-08-27T08:54:17;5.50;;;1.85;;
23608;SDS011;11982;50.810;4.442;2022-08-27T08:57:07;4.95;;;1.65;;
23608;SDS011;11982;50.810;4.442;2022-08-27T08:59:43;4.72;;;1.80;;
23608;SDS011;11982;50.810;4.442;2022-08-27T09:02:15;6.47;;;1.65;;
23608;SDS011;11982;50.810;4.442;2022-08-27T09:04:42;5.18;;;1.65;;
23608;SDS011;11982;50.810;4.442;2022-08-27T09:07:10;5.55;;;1.70;;
23608;SDS011;11982;50.810;4.442;2022-08-27T09:09:50;5.03;;;1.70;;
23608;SDS011;11982;50.810;4.442;2022-08-27T09:12:41;7.72;;;1.98;;
23608;SDS011;11982;50.810;4.442;2022-08-27T09:15:28;9.25;;;1.92;;
23608;SDS011;11982;50.810;4.442;2022-08-27T09:18:04;8.98;;;2.08;;
23608;SDS011;11982;50.810;4.442;2022-08-27T09:20:34;5.53;;;2.17;;
23608;SDS011;11982;50.810;4.442;2022-08-27T09:25:37;5.43;;;2.10;;
23608;SDS011;11982;50.810;4.442;2022-08-27T09:28:12;6.07;;;2.03;;
23608;SDS011;11982;50.810;4.442;2022-08-27T09:31:02;4.40;;;1.77;;
23608;SDS011;11982;50.810;4.442;2022-08-27T09:33:31;5.97;;;1.88;;
23608;SDS011;11982;50.810;4.442;2022-08-27T09:36:00;3.35;;;1.85;;
23608;SDS011;11982;50.810;4.442;2022-08-27T09:38:28;5.68;;;1.77;;
23608;SDS011;11982;50.810;4.442;2022-08-27T09:40:59;4.53;;;1.63;;
23608;SDS011;11982;50.810;4.442;2022-08-27T09:43:28;9.90;;;2.47;;
23608;SDS011;11982;50.810;4.442;2022-08-27T09:45:59;6.85;;;2.20;;
23608;SDS011;11982;50.810;4.442;2022-08-27T09:48:30;6.13;;;1.83;;
23608;SDS011;11982;50.810;4.442;2022-08-27T09:50:59;7.72;;;2.00;;
23608;SDS011;11982;50.810;4.442;2022-08-27T09:53:28;6.78;;;1.90;;
23608;SDS011;11982;50.810;4.442;2022-08-27T09:56:08;7.15;;;1.95;;
23608;SDS011;11982;50.810;4.442;2022-08-27T10:01:51;6.53;;;2.25;;
23608;SDS011;11982;50.810;4.442;2022-08-27T10:04:23;9.52;;;4.25;;
23608;SDS011;11982;50.810;4.442;2022-08-27T10:06:51;6.72;;;2.63;;
23608;SDS011;11982;50.810;4.442;2022-08-27T10:09:30;6.20;;;2.35;;
23608;SDS011;11982;50.810;4.442;2022-08-27T10:12:02;5.38;;;2.40;;
23608;SDS011;11982;50.810;4.442;2022-08-27T10:14:37;6.97;;;2.20;;
23608;SDS011;11982;50.810;4.442;2022-08-27T10:17:11;5.07;;;1.90;;
23608;SDS011;11982;50.810;4.442;2022-08-27T10:27:41;3.00;;;1.83;;
23608;SDS011;11982;50.810;4.442;2022-08-27T10:35:57;5.07;;;1.90;;
23608;SDS011;11982;50.810;4.442;2022-08-27T10:41:22;7.47;;;2.00;;
23608;SDS011;11982;50.810;4.442;2022-08-27T10:54:26;5.90;;;1.88;;
23608;SDS011;11982;50.810;4.442;2022-08-27T10:57:22;5.68;;;2.20;;
23608;SDS011;11982;50.810;4.442;2022-08-27T11:00:01;5.63;;;1.80;;
23608;SDS011;11982;50.810;4.442;2022-08-27T11:02:32;7.38;;;2.08;;
23608;SDS011;11982;50.810;4.442;2022-08-27T11:05:26;8.60;;;2.30;;
23608;SDS011;11982;50.810;4.442;2022-08-27T11:10:28;4.65;;;2.25;;
23608;SDS011;11982;50.810;4.442;2022-08-27T11:15:56;4.43;;;1.90;;
23608;SDS011;11982;50.810;4.442;2022-08-27T11:21:18;8.25;;;2.08;;
23608;SDS011;11982;50.810;4.442;2022-08-27T11:23:52;3.72;;;1.77;;
23608;SDS011;11982;50.810;4.442;2022-08-27T11:26:22;4.85;;;1.80;;
23608;SDS011;11982;50.810;4.442;2022-08-27T11:28:56;3.80;;;2.03;;
23608;SDS011;11982;50.810;4.442;2022-08-27T11:36:47;4.50;;;2.00;;
23608;SDS011;11982;50.810;4.442;2022-08-27T11:42:24;4.72;;;1.98;;
23608;SDS011;11982;50.810;4.442;2022-08-27T11:45:07;5.13;;;2.13;;
23608;SDS011;11982;50.810;4.442;2022-08-27T11:47:49;4.38;;;1.90;;
23608;SDS011;11982;50.810;4.442;2022-08-27T11:50:17;6.15;;;2.28;;
23608;SDS011;11982;50.810;4.442;2022-08-27T11:53:00;5.95;;;2.00;;
23608;SDS011;11982;50.810;4.442;2022-08-27T11:55:31;7.72;;;2.25;;
23608;SDS011;11982;50.810;4.442;2022-08-27T12:00:42;5.85;;;2.08;;
23608;SDS011;11982;50.810;4.442;2022-08-27T12:03:22;8.23;;;1.98;;
23608;SDS011;11982;50.810;4.442;2022-08-27T12:10:50;7.65;;;1.92;;
23608;SDS011;11982;50.810;4.442;2022-08-27T12:16:39;11.10;;;2.47;;
23608;SDS011;11982;50.810;4.442;2022-08-27T12:19:30;6.85;;;2.67;;
23608;SDS011;11982;50.810;4.442;2022-08-27T12:24:52;4.90;;;2.30;;
23608;SDS011;11982;50.810;4.442;2022-08-27T12:29:51;8.95;;;2.67;;
23608;SDS011;11982;50.810;4.442;2022-08-27T12:32:36;5.00;;;2.33;;
23608;SDS011;11982;50.810;4.442;2022-08-27T12:40:22;5.60;;;2.00;;
23608;SDS011;11982;50.810;4.442;2022-08-27T12:42:50;9.07;;;3.00;;
23608;SDS011;11982;50.810;4.442;2022-08-27T12:45:28;7.05;;;2.53;;
23608;SDS011;11982;50.810;4.442;2022-08-27T12:47:54;10.77;;;2.80;;
23608;SDS011;11982;50.810;4.442;2022-08-27T12:50:22;8.63;;;2.65;;
23608;SDS011;11982;50.810;4.442;2022-08-27T12:52:54;8.70;;;2.80;;
23608;SDS011;11982;50.810;4.442;2022-08-27T13:01:00;7.55;;;2.67;;
23608;SDS011;11982;50.810;4.442;2022-08-27T13:03:48;5.35;;;2.30;;
23608;SDS011;11982;50.810;4.442;2022-08-27T13:06:19;6.13;;;1.88;;
23608;SDS011;11982;50.810;4.442;2022-08-27T13:08:58;9.00;;;2.40;;
23608;SDS011;11982;50.810;4.442;2022-08-27T13:11:33;5.10;;;2.50;;
23608;SDS011;11982;50.810;4.442;2022-08-27T13:14:09;7.38;;;2.25;;
23608;SDS011;11982;50.810;4.442;2022-08-27T13:16:38;5.40;;;2.25;;
23608;SDS011;11982;50.810;4.442;2022-08-27T13:19:15;9.32;;;2.40;;
23608;SDS011;11982;50.810;4.442;2022-08-27T13:21:53;6.43;;;2.28;;
23608;SDS011;11982;50.810;4.442;2022-08-27T13:24:30;7.40;;;1.80;;
23608;SDS011;11982;50.810;4.442;2022-08-27T13:26:58;6.35;;;2.00;;
23608;SDS011;11982;50.810;4.442;2022-08-27T13:29:26;8.23;;;2.20;;
23608;SDS011;11982;50.810;4.442;2022-08-27T13:31:52;7.97;;;2.13;;
23608;SDS011;11982;50.810;4.442;2022-08-27T13:34:22;10.80;;;2.17;;
23608;SDS011;11982;50.810;4.442;2022-08-27T13:36:51;6.88;;;2.75;;
23608;SDS011;11982;50.810;4.442;2022-08-27T13:39:31;6.82;;;2.35;;
23608;SDS011;11982;50.810;4.442;2022-08-27T13:42:02;7.10;;;2.30;;
23608;SDS011;11982;50.810;4.442;2022-08-27T13:44:31;8.80;;;2.90;;
23608;SDS011;11982;50.810;4.442;2022-08-27T13:47:00;4.38;;;2.40;;
23608;SDS011;11982;50.810;4.442;2022-08-27T13:50:00;5.60;;;2.47;;
23608;SDS011;11982;50.810;4.442;2022-08-27T13:52:30;6.15;;;2.50;;
23608;SDS011;11982;50.810;4.442;2022-08-27T13:55:06;4.53;;;2.08;;
23608;SDS011;11982;50.810;4.442;2022-08-27T13:57:46;7.78;;;2.90;;
23608;SDS011;11982;50.810;4.442;2022-08-27T14:00:16;5.72;;;2.05;;
23608;SDS011;11982;50.810;4.442;2022-08-27T14:02:42;5.55;;;2.40;;
23608;SDS011;11982;50.810;4.442;2022-08-27T14:07:47;7.20;;;2.50;;
23608;SDS011;11982;50.810;4.442;2022-08-27T14:13:00;5.45;;;2.25;;
23608;SDS011;11982;50.810;4.442;2022-08-27T14:15:40;7.05;;;2.53;;
23608;SDS011;11982;50.810;4.442;2022-08-27T14:18:28;5.75;;;2.53;;
23608;SDS011;11982;50.810;4.442;2022-08-27T14:20:56;5.80;;;2.30;;
23608;SDS011;11982;50.810;4.442;2022-08-27T14:23:23;7.60;;;2.83;;
23608;SDS011;11982;50.810;4.442;2022-08-27T14:25:49;6.35;;;2.20;;
23608;SDS011;11982;50.810;4.442;2022-08-27T14:28:16;5.65;;;2.40;;
23608;SDS011;11982;50.810;4.442;2022-08-27T14:30:42;7.97;;;2.30;;
23608;SDS011;11982;50.810;4.442;2022-08-27T14:33:08;5.05;;;2.47;;
23608;SDS011;11982;50.810;4.442;2022-08-27T14:35:36;8.70;;;2.20;;
23608;SDS011;11982;50.810;4.442;2022-08-27T14:38:06;6.53;;;2.40;;
23608;SDS011;11982;50.810;4.442;2022-08-27T14:40:39;8.80;;;2.97;;
23608;SDS011;11982;50.810;4.442;2022-08-27T14:43:05;8.60;;;2.83;;
23608;SDS011;11982;50.810;4.442;2022-08-27T14:45:31;7.20;;;2.80;;
23608;SDS011;11982;50.810;4.442;2022-08-27T14:47:58;6.55;;;2.35;;
23608;SDS011;11982;50.810;4.442;2022-08-27T14:50:24;6.53;;;2.80;;
23608;SDS011;11982;50.810;4.442;2022-08-27T14:52:50;5.65;;;2.88;;
23608;SDS011;11982;50.810;4.442;2022-08-27T14:55:16;6.15;;;2.75;;
23608;SDS011;11982;50.810;4.442;2022-08-27T14:57:41;6.43;;;2.63;;
23608;SDS011;11982;50.810;4.442;2022-08-27T15:00:07;8.02;;;2.80;;
23608;SDS011;11982;50.810;4.442;2022-08-27T15:02:34;6.55;;;2.40;;
23608;SDS011;11982;50.810;4.442;2022-08-27T15:05:03;8.35;;;2.45;;
23608;SDS011;11982;50.810;4.442;2022-08-27T15:07:29;6.05;;;2.65;;
23608;SDS011;11982;50.810;4.442;2022-08-27T15:09:55;10.32;;;2.95;;
23608;SDS011;11982;50.810;4.442;2022-08-27T15:12:20;7.30;;;2.70;;
23608;SDS011;11982;50.810;4.442;2022-08-27T15:14:46;4.38;;;2.75;;
23608;SDS011;11982;50.810;4.442;2022-08-27T15:17:12;5.95;;;2.78;;
23608;SDS011;11982;50.810;4.442;2022-08-27T15:19:37;8.20;;;2.55;;
23608;SDS011;11982;50.810;4.442;2022-08-27T15:22:13;10.43;;;3.03;;
23608;SDS011;11982;50.810;4.442;2022-08-27T15:24:44;7.57;;;3.08;;
23608;SDS011;11982;50.810;4.442;2022-08-27T15:27:13;9.10;;;2.70;;
23608;SDS011;11982;50.810;4.442;2022-08-27T15:29:39;9.52;;;3.05;;
23608;SDS011;11982;50.810;4.442;2022-08-27T15:32:05;5.93;;;2.70;;
23608;SDS011;11982;50.810;4.442;2022-08-27T15:34:32;7.55;;;2.90;;
23608;SDS011;11982;50.810;4.442;2022-08-27T15:36:58;8.18;;;2.85;;
23608;SDS011;11982;50.810;4.442;2022-08-27T15:39:24;6.00;;;2.50;;
23608;SDS011;11982;50.810;4.442;2022-08-27T15:41:49;6.50;;;3.00;;
23608;SDS011;11982;50.810;4.442;2022-08-27T15:44:15;6.35;;;2.78;;
23608;SDS011;11982;50.810;4.442;2022-08-27T15:46:42;8.68;;;2.70;;
23608;SDS011;11982;50.810;4.442;2022-08-27T15:49:12;7.68;;;3.05;;
23608;SDS011;11982;50.810;4.442;2022-08-27T15:51:39;7.38;;;3.05;;
23608;SDS011;11982;50.810;4.442;2022-08-27T15:54:05;7.60;;;2.70;;
23608;SDS011;11982;50.810;4.442;2022-08-27T15:56:31;9.73;;;2.97;;
23608;SDS011;11982;50.810;4.442;2022-08-27T15:58:56;10.48;;;3.00;;
23608;SDS011;11982;50.810;4.442;2022-08-27T16:01:29;7.18;;;3.13;;
23608;SDS011;11982;50.810;4.442;2022-08-27T16:03:57;5.60;;;3.05;;
23608;SDS011;11982;50.810;4.442;2022-08-27T16:06:23;5.85;;;2.45;;
23608;SDS011;11982;50.810;4.442;2022-08-27T16:08:49;8.48;;;2.97;;
23608;SDS011;11982;50.810;4.442;2022-08-27T16:11:15;4.80;;;2.63;;
23608;SDS011;11982;50.810;4.442;2022-08-27T16:13:41;12.18;;;3.38;;
23608;SDS011;11982;50.810;4.442;2022-08-27T16:16:07;7.47;;;3.10;;
23608;SDS011;11982;50.810;4.442;2022-08-27T16:18:34;9.63;;;3.10;;
23608;SDS011;11982;50.810;4.442;2022-08-27T16:21:02;8.80;;;2.67;;
23608;SDS011;11982;50.810;4.442;2022-08-27T16:23:29;7.82;;;2.70;;
23608;SDS011;11982;50.810;4.442;2022-08-27T16:25:55;6.43;;;3.03;;